createdAt,value
2022-09-09T00:00:17.361Z,55.04
2022-09-09T00:03:28.018Z,55.19
2022-09-09T00:06:36.514Z,54.84
2022-09-09T00:09:46.124Z,54.92
2022-09-09T00:12:59.998Z,55.67
2022-09-09T00:19:25.202Z,55.51
2022-09-09T00:22:30.481Z,56.13
2022-09-09T00:25:39.823Z,56.00
2022-09-09T00:28:50.958Z,57.47
2022-09-09T00:32:00.484Z,58.48
2022-09-09T00:35:18.971Z,56.79
2022-09-09T00:38:27.354Z,56.35
2022-09-09T00:41:43.760Z,56.08
2022-09-09T00:44:55.511Z,56.01
2022-09-09T00:47:59.140Z,55.87
2022-09-09T00:51:11.779Z,55.98
2022-09-09T00:54:38.803Z,56.78
2022-09-09T00:57:42.585Z,56.25
2022-09-09T01:00:50.114Z,57.30
2022-09-09T01:03:55.982Z,56.89
2022-09-09T01:07:09.290Z,57.08
2022-09-09T01:10:23.361Z,57.66
2022-09-09T01:13:31.320Z,56.33
2022-09-09T01:16:37.428Z,56.55
2022-09-09T01:19:57.971Z,57.19
2022-09-09T01:23:33.406Z,57.80
2022-09-09T01:27:09.916Z,57.43
2022-09-09T01:30:15.159Z,58.22
2022-09-09T01:33:20.832Z,58.63
2022-09-09T01:36:35.502Z,57.72
2022-09-09T01:39:41.324Z,58.27
2022-09-09T01:42:49.282Z,58.70
2022-09-09T01:45:56.527Z,59.58
2022-09-09T01:49:03.023Z,58.02
2022-09-09T01:52:07.132Z,57.17
2022-09-09T01:55:14.558Z,57.24
2022-09-09T01:58:33.604Z,55.33
2022-09-09T02:01:54.239Z,55.42
2022-09-09T02:05:05.791Z,55.43
2022-09-09T02:08:11.055Z,55.55
2022-09-09T02:11:27.260Z,54.93
2022-09-09T02:14:57.454Z,56.50
2022-09-09T02:18:08.983Z,56.22
2022-09-09T02:21:15.265Z,57.32
2022-09-09T02:24:19.005Z,57.46
2022-09-09T02:27:30.181Z,57.60
2022-09-09T02:30:37.257Z,57.35
2022-09-09T02:33:45.451Z,58.17
2022-09-09T02:36:51.901Z,58.83
2022-09-09T02:39:55.236Z,58.98
2022-09-09T02:43:01.153Z,59.57
2022-09-09T02:46:20.539Z,58.56
2022-09-09T02:49:35.132Z,58.69
2022-09-09T02:52:50.548Z,58.24
2022-09-09T02:55:59.189Z,57.32
2022-09-09T02:59:05.927Z,57.39
2022-09-09T03:02:12.610Z,58.33
2022-09-09T03:05:17.978Z,58.09
2022-09-09T03:08:21.954Z,57.09
2022-09-09T03:11:25.351Z,58.00
2022-09-09T03:14:28.715Z,57.34
2022-09-09T03:17:34.195Z,57.73
2022-09-09T03:20:37.459Z,58.16
2022-09-09T03:23:40.759Z,58.45
2022-09-09T03:26:45.840Z,57.76
2022-09-09T03:29:53.178Z,58.26
2022-09-09T03:33:01.470Z,57.46
2022-09-09T03:36:08.780Z,58.02
2022-09-09T03:39:12.570Z,57.74
2022-09-09T03:42:20.214Z,58.07
2022-09-09T03:45:27.103Z,57.86
2022-09-09T03:48:32.012Z,59.58
2022-09-09T03:51:37.840Z,60.83
2022-09-09T03:54:43.523Z,61.56
2022-09-09T03:57:47.642Z,61.89
2022-09-09T04:00:56.584Z,60.68
2022-09-09T04:04:02.361Z,61.25
2022-09-09T04:07:07.284Z,61.66
2022-09-09T04:10:11.090Z,60.26
2022-09-09T04:13:17.302Z,59.34
2022-09-09T04:16:21.286Z,60.25
2022-09-09T04:19:26.663Z,59.88
2022-09-09T04:22:30.384Z,58.69
2022-09-09T04:25:35.188Z,59.04
2022-09-09T04:28:39.495Z,60.15
2022-09-09T04:31:49.018Z,58.99
2022-09-09T04:34:53.754Z,60.34
2022-09-09T04:37:57.285Z,59.61
2022-09-09T04:41:00.805Z,61.14
2022-09-09T04:44:04.810Z,61.10
2022-09-09T04:47:09.372Z,60.99
2022-09-09T04:50:14.442Z,63.21
2022-09-09T04:53:18.402Z,60.73
2022-09-09T04:56:22.252Z,60.66
2022-09-09T04:59:31.747Z,60.80
2022-09-09T05:02:40.209Z,59.59
2022-09-09T05:05:45.792Z,61.09
2022-09-09T05:08:49.295Z,59.66
2022-09-09T05:11:55.239Z,60.09
2022-09-09T05:15:04.175Z,59.71
2022-09-09T05:18:07.552Z,59.45
2022-09-09T05:21:13.462Z,57.77
2022-09-09T05:24:16.798Z,58.28
2022-09-09T05:27:21.415Z,57.10
2022-09-09T05:30:27.448Z,56.86
2022-09-09T05:33:31.119Z,57.19
2022-09-09T05:36:35.819Z,56.61
2022-09-09T05:39:39.224Z,55.31
2022-09-09T05:42:42.924Z,55.48
2022-09-09T05:45:48.667Z,54.67
2022-09-09T05:48:53.146Z,54.97
2022-09-09T05:51:59.861Z,53.66
2022-09-09T05:55:05.513Z,53.96
2022-09-09T05:58:08.756Z,53.16
2022-09-09T06:01:14.410Z,52.98
2022-09-09T06:04:19.094Z,53.24
2022-09-09T06:07:23.884Z,52.97
2022-09-09T06:10:27.207Z,53.15
2022-09-09T06:13:30.998Z,51.79
2022-09-09T06:16:35.259Z,51.01
2022-09-09T06:19:39.086Z,50.43
2022-09-09T06:22:47.627Z,49.84
2022-09-09T06:25:52.056Z,51.05
2022-09-09T06:28:58.390Z,49.65
2022-09-09T06:32:01.810Z,49.63
2022-09-09T06:35:05.800Z,48.87
2022-09-09T06:38:10.650Z,48.02
2022-09-09T06:41:16.095Z,48.25
2022-09-09T06:44:21.637Z,48.65
2022-09-09T06:47:25.813Z,48.53
2022-09-09T06:50:29.816Z,49.05
2022-09-09T06:53:36.182Z,47.93
2022-09-09T06:56:43.143Z,47.63
2022-09-09T06:59:52.675Z,49.29
2022-09-09T07:02:57.110Z,47.48
2022-09-09T07:06:00.506Z,47.83
2022-09-09T07:09:08.211Z,46.46
2022-09-09T07:12:11.692Z,45.73
2022-09-09T07:15:20.684Z,45.74
2022-09-09T07:18:23.928Z,46.15
2022-09-09T07:21:29.145Z,45.52
2022-09-09T07:24:33.816Z,45.29
2022-09-09T07:27:37.322Z,45.64
2022-09-09T07:30:42.413Z,45.24
2022-09-09T07:33:47.684Z,43.96
2022-09-09T07:36:50.996Z,44.23
2022-09-09T07:39:57.160Z,43.78
2022-09-09T07:43:00.993Z,43.36
2022-09-09T07:46:04.828Z,43.88
2022-09-09T07:49:08.888Z,42.51
2022-09-09T07:52:14.881Z,42.13
2022-09-09T07:55:26.539Z,41.56
2022-09-09T07:58:30.572Z,41.77
2022-09-09T08:01:40.143Z,40.81
2022-09-09T08:04:45.038Z,41.41
2022-09-09T08:07:49.289Z,41.84
2022-09-09T08:10:54.035Z,41.26
2022-09-09T08:14:02.230Z,39.70
2022-09-09T08:17:06.996Z,39.96
2022-09-09T08:20:12.227Z,41.23
2022-09-09T08:23:16.213Z,40.85
2022-09-09T08:26:24.347Z,39.96
2022-09-09T08:29:29.648Z,39.80
2022-09-09T08:32:33.989Z,39.04
2022-09-09T08:35:37.445Z,38.55
2022-09-09T08:38:40.936Z,40.19
2022-09-09T08:42:19.761Z,39.94
2022-09-09T08:45:36.673Z,41.01
2022-09-09T08:48:59.192Z,39.86
2022-09-09T08:52:04.130Z,39.50
2022-09-09T08:55:22.420Z,39.96
2022-09-09T08:58:30.602Z,39.32
2022-09-09T09:01:56.705Z,38.97
2022-09-09T09:05:22.047Z,38.86
2022-09-09T09:08:33.582Z,38.47
2022-09-09T09:11:39.582Z,37.95
2022-09-09T09:14:46.711Z,36.98
2022-09-09T09:17:51.087Z,38.38
2022-09-09T09:21:05.040Z,37.47
2022-09-09T09:24:21.327Z,37.55
2022-09-09T09:27:34.186Z,37.43
2022-09-09T09:30:43.471Z,37.15
2022-09-09T09:33:50.967Z,37.25
2022-09-09T09:36:59.083Z,37.28
2022-09-09T09:40:12.749Z,36.38
2022-09-09T09:43:24.022Z,35.81
2022-09-09T09:46:28.935Z,37.57
2022-09-09T09:49:41.563Z,36.55
2022-09-09T09:52:55.435Z,36.57
2022-09-09T09:56:03.119Z,36.14
2022-09-09T09:59:13.357Z,35.77
2022-09-09T10:02:41.705Z,35.71
2022-09-09T10:05:48.307Z,35.45
2022-09-09T10:08:53.251Z,36.13
2022-09-09T10:12:06.200Z,36.29
2022-09-09T10:15:23.529Z,35.53
2022-09-09T10:18:44.764Z,36.55
2022-09-09T10:21:59.306Z,37.68
2022-09-09T10:25:41.267Z,36.69
2022-09-09T10:29:01.563Z,36.18
2022-09-09T10:32:21.005Z,36.82
2022-09-09T10:35:33.942Z,36.58
2022-09-09T10:38:42.241Z,36.25
2022-09-09T10:41:57.090Z,35.99
2022-09-09T10:45:16.993Z,35.78
2022-09-09T10:48:56.944Z,36.07
2022-09-09T10:52:09.594Z,36.16
2022-09-09T10:55:16.692Z,35.30
2022-09-09T10:58:26.606Z,35.81
2022-09-09T11:01:36.161Z,36.27
2022-09-09T11:04:44.739Z,35.80
2022-09-09T11:07:54.070Z,35.93
2022-09-09T11:11:02.635Z,35.99
2022-09-09T11:14:14.605Z,35.88
2022-09-09T11:17:22.147Z,35.30
2022-09-09T11:20:26.510Z,35.70
2022-09-09T11:23:42.120Z,36.26
2022-09-09T11:26:51.190Z,35.89
2022-09-09T11:30:44.077Z,35.89
2022-09-09T11:34:00.611Z,35.88
2022-09-09T11:37:15.280Z,36.16
2022-09-09T11:40:24.921Z,36.10
2022-09-09T11:43:32.731Z,35.49
2022-09-09T11:46:40.307Z,36.24
2022-09-09T11:49:45.856Z,36.25
2022-09-09T11:52:50.793Z,36.21
2022-09-09T11:56:11.988Z,36.30
2022-09-09T11:59:24.230Z,36.67
2022-09-09T12:02:32.060Z,37.26
2022-09-09T12:05:41.904Z,37.30
2022-09-09T12:08:48.930Z,36.92
2022-09-09T12:11:53.769Z,36.35
2022-09-09T12:15:00.573Z,37.26
2022-09-09T12:18:04.514Z,36.37
2022-09-09T12:21:19.269Z,37.41
2022-09-09T12:24:29.761Z,37.38
2022-09-09T12:27:43.190Z,37.99
2022-09-09T12:30:56.983Z,38.77
2022-09-09T12:34:12.057Z,38.19
2022-09-09T12:37:28.992Z,37.98
2022-09-09T12:40:36.156Z,38.24
2022-09-09T12:43:40.851Z,38.44
2022-09-09T12:46:47.748Z,38.30
2022-09-09T12:49:52.319Z,39.00
2022-09-09T12:52:58.070Z,38.77
2022-09-09T12:56:04.069Z,38.96
2022-09-09T12:59:25.707Z,39.45
2022-09-09T13:02:30.051Z,38.18
2022-09-09T13:05:39.939Z,38.06
2022-09-09T13:08:43.955Z,37.95
2022-09-09T13:11:51.484Z,38.29
2022-09-09T13:14:58.489Z,37.78
2022-09-09T13:18:07.478Z,38.17
2022-09-09T13:21:10.810Z,38.48
2022-09-09T13:24:30.575Z,38.12
2022-09-09T13:27:39.642Z,39.11
2022-09-09T13:30:45.554Z,39.41
2022-09-09T13:33:48.872Z,38.77
2022-09-09T13:36:55.777Z,39.37
2022-09-09T13:40:03.732Z,39.48
2022-09-09T13:43:07.227Z,39.04
2022-09-09T13:46:31.246Z,39.03
2022-09-09T13:49:35.110Z,38.26
2022-09-09T13:52:38.314Z,39.05
2022-09-09T13:55:41.577Z,39.38
2022-09-09T13:58:44.797Z,39.35
2022-09-09T14:01:50.233Z,39.43
2022-09-09T14:04:56.351Z,39.05
2022-09-09T14:08:01.566Z,39.13
2022-09-09T14:11:05.047Z,38.85
2022-09-09T14:14:14.323Z,39.70
2022-09-09T14:17:26.153Z,39.89
2022-09-09T14:20:29.435Z,39.52
2022-09-09T14:23:33.433Z,39.58
2022-09-09T14:26:36.637Z,40.20
2022-09-09T14:29:39.982Z,40.82
2022-09-09T14:32:44.589Z,40.91
2022-09-09T14:35:47.871Z,41.42
2022-09-09T14:38:51.418Z,40.79
2022-09-09T14:41:54.679Z,41.56
2022-09-09T14:44:57.961Z,41.84
2022-09-09T14:48:03.062Z,41.05
2022-09-09T14:51:10.395Z,40.90
2022-09-09T14:54:13.808Z,41.24
2022-09-09T14:57:17.188Z,40.65
2022-09-09T15:00:20.473Z,40.64
2022-09-09T15:03:25.063Z,40.42
2022-09-09T15:06:31.675Z,41.23
2022-09-09T15:09:34.906Z,42.23
2022-09-09T15:12:39.569Z,42.30
2022-09-09T15:15:42.754Z,43.30
2022-09-09T15:18:48.343Z,42.52
2022-09-09T15:21:51.512Z,42.47
2022-09-09T15:24:54.712Z,42.05
2022-09-09T15:27:58.087Z,42.02
2022-09-09T15:31:07.323Z,42.29
2022-09-09T15:34:12.384Z,42.36
2022-09-09T15:37:15.657Z,42.54
2022-09-09T15:40:18.882Z,43.30
2022-09-09T15:43:22.139Z,43.28
2022-09-09T15:46:28.932Z,43.84
2022-09-09T15:49:33.578Z,43.63
2022-09-09T15:52:36.843Z,43.85
2022-09-09T15:55:40.023Z,44.08
2022-09-09T15:58:44.560Z,44.43
2022-09-09T16:01:47.804Z,43.85
2022-09-09T16:04:52.574Z,44.37
2022-09-09T16:07:55.762Z,44.49
2022-09-09T16:10:58.992Z,44.47
2022-09-09T16:14:02.875Z,45.03
2022-09-09T16:17:07.290Z,45.19
2022-09-09T16:20:13.088Z,44.97
2022-09-09T16:23:16.284Z,45.31
2022-09-09T16:26:20.595Z,45.13
2022-09-09T16:29:25.030Z,45.10
2022-09-09T16:32:28.197Z,45.63
2022-09-09T16:35:32.853Z,45.74
2022-09-09T16:38:36.726Z,45.87
2022-09-09T16:41:40.821Z,45.66
2022-09-09T16:44:44.004Z,46.23
2022-09-09T16:47:47.506Z,46.81
2022-09-09T16:50:52.094Z,46.50
2022-09-09T16:53:56.346Z,46.23
2022-09-09T16:57:01.111Z,46.40
2022-09-09T17:00:07.818Z,46.26
2022-09-09T17:03:14.798Z,46.32
2022-09-09T17:06:19.470Z,46.27
2022-09-09T17:09:24.043Z,45.99
2022-09-09T17:12:27.740Z,46.34
2022-09-09T17:15:31.769Z,45.63
2022-09-09T17:18:34.992Z,45.40
2022-09-09T17:22:00.127Z,46.50
2022-09-09T17:25:04.380Z,46.63
2022-09-09T17:28:07.532Z,47.11
2022-09-09T17:31:13.401Z,47.47
2022-09-09T17:34:16.714Z,47.86
2022-09-09T17:37:21.363Z,47.63
2022-09-09T17:40:24.786Z,48.00
2022-09-09T17:43:28.570Z,48.92
2022-09-09T17:46:35.361Z,48.20
2022-09-09T17:49:39.070Z,49.81
2022-09-09T17:52:43.657Z,49.37
2022-09-09T17:55:51.024Z,49.13
2022-09-09T17:58:55.863Z,49.34
2022-09-09T18:01:59.178Z,50.10
2022-09-09T18:05:02.477Z,50.06
2022-09-09T18:08:07.031Z,50.26
2022-09-09T18:11:10.693Z,50.88
2022-09-09T18:14:17.889Z,50.60
2022-09-09T18:17:21.119Z,51.14
2022-09-09T18:20:24.381Z,52.44
2022-09-09T18:23:29.116Z,52.54
2022-09-09T18:26:33.766Z,52.79
2022-09-09T18:29:36.968Z,52.82
2022-09-09T18:32:40.174Z,53.18
2022-09-09T18:35:43.662Z,52.84
2022-09-09T18:38:48.270Z,54.08
2022-09-09T18:41:53.960Z,53.48
2022-09-09T18:44:57.211Z,53.06
2022-09-09T18:48:01.144Z,52.53
2022-09-09T18:51:05.468Z,52.86
2022-09-09T18:54:14.092Z,54.13
2022-09-09T18:57:18.709Z,53.82
2022-09-09T19:00:21.997Z,54.51
2022-09-09T19:03:25.657Z,54.61
2022-09-09T19:06:31.375Z,54.58
2022-09-09T19:09:36.646Z,54.36
2022-09-09T19:12:41.437Z,54.35
2022-09-09T19:15:44.946Z,53.75
2022-09-09T19:18:48.395Z,54.68
2022-09-09T19:21:52.054Z,54.98
2022-09-09T19:24:59.203Z,55.83
2022-09-09T19:28:03.868Z,56.16
2022-09-09T19:31:08.960Z,56.38
2022-09-09T19:34:12.632Z,56.33
2022-09-09T19:37:18.628Z,56.88
2022-09-09T19:40:23.523Z,57.64
2022-09-09T19:43:26.704Z,57.49
2022-09-09T19:46:31.421Z,57.30
2022-09-09T19:49:35.361Z,57.34
2022-09-09T19:52:39.000Z,57.70
2022-09-09T19:55:43.616Z,56.90
2022-09-09T19:58:49.059Z,57.60
2022-09-09T20:01:52.541Z,57.24
2022-09-09T20:04:56.448Z,56.75
2022-09-09T20:08:05.727Z,57.41
2022-09-09T20:11:10.658Z,56.83
2022-09-09T20:14:14.410Z,57.40
2022-09-09T20:17:17.629Z,57.65
2022-09-09T20:20:20.876Z,59.37
2022-09-09T20:23:24.094Z,58.93
2022-09-09T20:26:31.040Z,58.61
2022-09-09T20:29:34.307Z,58.51
2022-09-09T20:32:37.456Z,59.56
2022-09-09T20:35:40.709Z,58.65
2022-09-09T20:38:45.474Z,58.07
2022-09-09T20:41:51.309Z,57.33
2022-09-09T20:44:54.613Z,57.61
2022-09-09T20:47:58.331Z,57.00
2022-09-09T20:51:06.523Z,57.86
2022-09-09T20:54:12.437Z,57.93
2022-09-09T20:57:22.076Z,59.61
2022-09-09T21:00:25.313Z,59.54
2022-09-09T21:03:32.116Z,58.41
2022-09-09T21:06:35.350Z,58.01
2022-09-09T21:09:38.570Z,59.15
2022-09-09T21:12:43.105Z,58.36
2022-09-09T21:15:46.600Z,58.15
2022-09-09T21:18:50.030Z,58.19
2022-09-09T21:21:53.277Z,59.05
2022-09-09T21:24:56.595Z,58.97
2022-09-09T21:28:01.208Z,58.17
2022-09-09T21:31:06.129Z,58.96
2022-09-09T21:34:09.841Z,59.11
2022-09-09T21:37:13.060Z,58.81
2022-09-09T21:40:16.478Z,60.01
2022-09-09T21:43:23.673Z,59.59
2022-09-09T21:46:28.219Z,59.18
2022-09-09T21:49:31.506Z,58.53
2022-09-09T21:52:34.711Z,59.28
2022-09-09T21:55:41.012Z,59.01
2022-09-09T21:58:46.904Z,58.36
2022-09-09T22:01:50.221Z,58.09
2022-09-09T22:04:53.470Z,58.94
2022-09-09T22:07:56.785Z,58.03
2022-09-09T22:11:13.661Z,58.69
2022-09-09T22:14:18.260Z,59.09
2022-09-09T22:17:24.658Z,59.95
2022-09-09T22:20:28.961Z,59.76
2022-09-09T22:23:32.230Z,59.41
2022-09-09T22:26:37.471Z,60.15
2022-09-09T22:29:42.071Z,59.94
2022-09-09T22:32:45.272Z,59.37
2022-09-09T22:35:48.973Z,60.04
2022-09-09T22:38:52.836Z,60.33
2022-09-09T22:41:56.356Z,60.16
2022-09-09T22:45:00.961Z,59.72
2022-09-09T22:48:08.294Z,63.29
2022-09-09T22:51:13.365Z,63.75
2022-09-09T22:54:21.615Z,63.29
2022-09-09T22:57:24.856Z,64.87
2022-09-09T23:00:30.247Z,63.25
2022-09-09T23:03:33.458Z,63.10
2022-09-09T23:06:38.623Z,63.15
2022-09-09T23:09:41.885Z,61.93
2022-09-09T23:12:45.182Z,61.59
2022-09-09T23:15:49.815Z,61.49
2022-09-09T23:18:55.192Z,61.03
2022-09-09T23:22:00.762Z,61.36
2022-09-09T23:25:05.963Z,60.80
2022-09-09T23:28:09.183Z,60.90
2022-09-09T23:31:16.135Z,61.27
2022-09-09T23:34:19.399Z,60.35
2022-09-09T23:37:22.764Z,61.03
2022-09-09T23:40:27.031Z,60.84
2022-09-09T23:43:30.192Z,60.70
2022-09-09T23:46:35.845Z,60.47
2022-09-09T23:49:39.416Z,61.12
2022-09-09T23:52:43.548Z,61.72
2022-09-09T23:55:46.723Z,61.82
2022-09-09T23:58:50.253Z,61.63
